Time;durP1;ratioP1;P1;durP2;ratioP2;P2;SDS_P1;SDS_P2;PMS_P1;PMS_P2;Temp;Humidity;BMP_temperature;BMP_pressure;BME280_temperature;BME280_humidity;BME280_pressure;Samples;Min_cycle;Max_cycle;Signal;HPM_P1;HPM_P2
2021/06/11 00:00:25;;;;;;;;;;;;;;;22.00;27.21;101322.53;5018939;27;99336;-72
2021/06/11 00:02:52;;;;;;;;;;;;;;;21.94;27.45;101327.13;5002536;28;98431;-73
2021/06/11 00:05:20;;;;;;;;;;;;;;;21.91;27.74;101329.91;5019410;27;97815;-72
2021/06/11 00:07:47;;;;;;;;;;;;;;;21.93;27.43;101325.34;5021708;27;97518;-72
2021/06/11 00:10:16;;;;;;;;;;;;;;;21.93;27.68;101325.34;5019221;27;99654;-71
2021/06/11 00:12:43;;;;;;;;;;;;;;;21.96;27.41;101323.50;5018421;27;98099;-71
2021/06/11 00:15:11;;;;;;;;;;;;;;;21.89;27.16;101323.59;5019306;27;97700;-71
2021/06/11 00:17:38;;;;;;;;;;;;;;;21.82;27.18;101330.06;5018870;27;97761;-70
2021/06/11 00:20:06;;;;;;;;;;;;;;;21.77;27.28;101323.81;5017930;27;98200;-70
2021/06/11 00:22:34;;;;;;;;;;;;;;;21.71;27.59;101323.91;5019089;27;98977;-71
2021/06/11 00:25:01;;;;;;;;;;;;;;;21.62;27.52;101318.59;5017637;27;96786;-71
2021/06/11 00:27:29;;;;;;;;;;;;;;;21.51;27.24;101315.16;5018860;27;97019;-71
2021/06/11 00:29:56;;;;;;;;;;;;;;;21.49;27.41;101321.56;5017163;27;97805;-70
2021/06/11 00:32:24;;;;;;;;;;;;;;;21.47;27.70;101318.84;5019656;27;98519;-71
2021/06/11 00:34:51;;;;;;;;;;;;;;;21.44;27.75;101312.56;5018462;27;96897;-70
2021/06/11 00:37:18;;;;;;;;;;;;;;;21.44;27.71;101307.16;5020049;27;97828;-70
2021/06/11 00:39:45;;;;;;;;;;;;;;;21.47;27.71;101310.72;5018277;27;98925;-70
2021/06/11 00:42:12;;;;;;;;;;;;;;;21.49;28.24;101300.75;5018173;27;97863;-70
2021/06/11 00:44:41;;;;;;;;;;;;;;;21.52;28.00;101308.84;5020366;27;96764;-71
2021/06/11 00:47:08;;;;;;;;;;;;;;;21.48;27.72;101309.81;5019794;27;98299;-70
2021/06/11 00:49:35;;;;;;;;;;;;;;;21.44;27.78;101308.06;5017519;27;100639;-71
2021/06/11 00:52:05;;;;;;;;;;;;;;;21.30;27.82;101301.97;5019909;27;97566;-71
2021/06/11 00:54:33;;;;;;;;;;;;;;;21.24;27.76;101301.16;5019325;27;97922;-70
2021/06/11 00:57:01;;;;;;;;;;;;;;;21.15;27.74;101298.56;5017476;27;96877;-71
2021/06/11 00:59:28;;;;;;;;;;;;;;;21.15;28.01;101304.91;5017362;27;99303;-71
2021/06/11 01:01:56;;;;;;;;;;;;;;;21.15;28.32;101304.91;5000857;28;99593;-71
2021/06/11 01:04:23;;;;;;;;;;;;;;;21.12;28.40;101314.88;5034444;27;98055;-71
2021/06/11 01:06:50;;;;;;;;;;;;;;;21.11;28.35;101304.91;5003001;28;97643;-71
2021/06/11 01:09:18;;;;;;;;;;;;;;;21.10;28.33;101305.84;5021660;27;99877;-72
2021/06/11 01:11:45;;;;;;;;;;;;;;;21.10;28.43;101306.75;5021121;27;99150;-72
2021/06/11 01:14:12;;;;;;;;;;;;;;;21.07;28.53;101304.06;5023917;27;96908;-71
2021/06/11 01:16:40;;;;;;;;;;;;;;;21.03;28.57;101307.75;5021976;27;97875;-72
2021/06/11 01:19:09;;;;;;;;;;;;;;;20.95;28.32;101309.66;5023202;27;97646;-72
2021/06/11 01:21:38;;;;;;;;;;;;;;;20.87;28.52;101304.34;5021286;27;98313;-72
2021/06/11 01:24:11;;;;;;;;;;;;;;;20.82;28.85;101308.00;5022916;27;97136;-72
2021/06/11 01:26:40;;;;;;;;;;;;;;;20.78;29.01;101307.16;5001995;28;97589;-72
2021/06/11 01:29:08;;;;;;;;;;;;;;;20.76;29.44;101306.28;5022090;27;100551;-71
2021/06/11 01:31:36;;;;;;;;;;;;;;;20.70;29.47;101303.63;5022105;27;98515;-72
2021/06/11 01:34:07;;;;;;;;;;;;;;;20.66;29.44;101306.41;5024260;27;97368;-71
2021/06/11 01:36:35;;;;;;;;;;;;;;;20.68;29.60;101310.91;5020723;27;98692;-71
2021/06/11 01:39:03;;;;;;;;;;;;;;;20.60;29.31;101301.97;5020889;27;99334;-73
2021/06/11 01:41:31;;;;;;;;;;;;;;;20.55;29.53;101303.84;5020508;27;98980;-72
2021/06/11 01:43:59;;;;;;;;;;;;;;;20.54;29.67;101304.75;5021998;27;96822;-71
2021/06/11 01:46:27;;;;;;;;;;;;;;;20.51;29.70;101306.56;5004597;28;98162;-71
2021/06/11 01:48:54;;;;;;;;;;;;;;;20.49;29.64;101313.78;5021666;27;98849;-71
2021/06/11 01:51:22;;;;;;;;;;;;;;;20.40;29.78;101316.59;5020215;27;99220;-72
2021/06/11 01:53:49;;;;;;;;;;;;;;;20.36;29.77;101307.63;5002486;28;97617;-71
2021/06/11 01:56:17;;;;;;;;;;;;;;;20.30;30.48;101314.91;5004352;28;97677;-71
2021/06/11 01:58:44;;;;;;;;;;;;;;;20.27;30.01;101310.44;5020233;27;100598;-71
2021/06/11 02:01:13;;;;;;;;;;;;;;;20.21;30.26;101315.00;4997689;28;99277;-71
2021/06/11 02:03:40;;;;;;;;;;;;;;;20.19;30.29;101312.34;5019475;27;97287;-71
2021/06/11 02:06:07;;;;;;;;;;;;;;;20.17;30.59;101307.84;5018047;27;97572;-72
2021/06/11 02:08:34;;;;;;;;;;;;;;;20.10;30.54;101315.13;5020531;27;98930;-72
2021/06/11 02:11:02;;;;;;;;;;;;;;;20.09;30.81;101321.41;5020593;27;97663;-72
2021/06/11 02:13:29;;;;;;;;;;;;;;;19.98;31.13;101310.72;5023757;27;97266;-72
2021/06/11 02:15:56;;;;;;;;;;;;;;;20.02;30.53;101310.69;5022311;27;97819;-72
2021/06/11 02:18:25;;;;;;;;;;;;;;;20.01;30.69;101301.66;5021005;27;98429;-72
2021/06/11 02:20:52;;;;;;;;;;;;;;;20.02;30.91;101305.28;5022525;27;97650;-71
2021/06/11 02:23:20;;;;;;;;;;;;;;;19.98;31.46;101308.03;5020755;27;98038;-71
2021/06/11 02:25:48;;;;;;;;;;;;;;;19.92;31.02;101313.47;5021683;27;97792;-71
2021/06/11 02:28:16;;;;;;;;;;;;;;;19.85;31.43;101305.41;5004425;28;99298;-73
2021/06/11 02:30:43;;;;;;;;;;;;;;;19.82;31.53;101310.84;5020098;27;99645;-71
2021/06/11 02:33:10;;;;;;;;;;;;;;;19.83;31.42;101302.72;5019508;27;97613;-71
2021/06/11 02:35:39;;;;;;;;;;;;;;;19.87;31.04;101304.47;5019875;27;98199;-72
2021/06/11 02:38:06;;;;;;;;;;;;;;;19.81;31.63;101309.94;5022903;27;97766;-72
2021/06/11 02:40:33;;;;;;;;;;;;;;;19.84;30.93;101307.22;5020321;27;98201;-71
2021/06/11 02:43:01;;;;;;;;;;;;;;;19.82;31.33;101306.34;5020331;27;97811;-71
2021/06/11 02:45:30;;;;;;;;;;;;;;;19.82;31.33;101311.75;5020812;27;97836;-72
2021/06/11 02:47:58;;;;;;;;;;;;;;;19.82;31.79;101311.75;5019276;27;99414;-71
2021/06/11 02:50:27;;;;;;;;;;;;;;;19.78;31.67;101319.88;5021260;27;97986;-71
2021/06/11 02:52:56;;;;;;;;;;;;;;;19.79;31.19;101321.69;5021969;27;97141;-71
2021/06/11 02:55:23;;;;;;;;;;;;;;;19.81;31.75;101323.44;5027454;27;97169;-71
2021/06/11 02:57:51;;;;;;;;;;;;;;;19.80;31.32;101318.97;5031644;27;97612;-71
2021/06/11 03:00:19;;;;;;;;;;;;;;;19.84;31.43;101318.03;5032201;27;99978;-71
2021/06/11 03:02:48;;;;;;;;;;;;;;;19.87;31.52;101319.78;5031650;27;97112;-71
2021/06/11 03:05:16;;;;;;;;;;;;;;;19.93;31.35;101322.47;5017766;27;97275;-71
2021/06/11 03:07:44;;;;;;;;;;;;;;;19.99;31.22;101317.03;5022553;27;97733;-71
2021/06/11 03:10:13;;;;;;;;;;;;;;;20.03;31.33;101326.00;5019323;27;99163;-71
2021/06/11 03:12:40;;;;;;;;;;;;;;;20.00;31.26;101321.50;5018987;27;96848;-70
2021/06/11 03:15:08;;;;;;;;;;;;;;;19.98;30.79;101321.53;5022431;27;97707;-71
2021/06/11 03:17:38;;;;;;;;;;;;;;;19.96;31.41;101328.75;5018161;27;99037;-71
2021/06/11 03:20:07;;;;;;;;;;;;;;;19.95;31.00;101323.38;5018616;27;98120;-70
2021/06/11 03:22:36;;;;;;;;;;;;;;;19.96;31.24;101328.75;5021424;27;97210;-71
2021/06/11 03:25:04;;;;;;;;;;;;;;;19.94;31.23;101329.66;5004391;28;96801;-71
2021/06/11 03:27:35;;;;;;;;;;;;;;;19.94;31.04;101338.66;5017857;27;101173;-71
2021/06/11 03:30:05;;;;;;;;;;;;;;;19.98;31.27;101331.44;5019401;27;97868;-70
2021/06/11 03:32:33;;;;;;;;;;;;;;;19.98;31.38;101337.75;5020756;27;97307;-71
2021/06/11 03:35:01;;;;;;;;;;;;;;;19.98;31.27;101339.53;5022610;27;99576;-71
2021/06/11 03:37:29;;;;;;;;;;;;;;;19.93;31.40;101336.88;5020528;27;98767;-71
2021/06/11 03:39:57;;;;;;;;;;;;;;;19.89;30.89;101335.09;5019766;27;97649;-72
2021/06/11 03:42:24;;;;;;;;;;;;;;;19.83;31.16;101329.72;4986501;28;97598;-70
2021/06/11 03:44:53;;;;;;;15.80;14.30;;;;;;;19.85;31.59;101337.81;5017043;27;97929;-70
2021/06/11 03:47:24;;;;;;;16.30;14.60;;;;;;;19.86;32.32;101331.50;5015608;27;98823;-71
2021/06/11 03:49:55;;;;;;;17.83;16.13;;;;;;;19.93;32.48;101336.88;5011711;27;97985;-71
2021/06/11 03:52:25;;;;;;;17.20;15.60;;;;;;;19.99;32.44;101336.81;5017966;27;97446;-71
2021/06/11 03:54:54;;;;;;;39.20;32.00;;;;;;;20.02;32.47;101340.41;5010150;27;97107;-71
2021/06/11 03:57:23;;;;;;;35.53;27.90;;;;;;;20.04;32.86;101338.59;5015388;27;97761;-75
2021/06/11 03:59:51;;;;;;;17.10;15.40;;;;;;;20.08;32.48;101337.66;4995108;27;99221;-71
2021/06/11 04:02:19;;;;;;;16.90;15.20;;;;;;;20.10;32.27;101335.84;4991251;27;98854;-71
2021/06/11 04:04:47;;;;;;;16.73;15.15;;;;;;;20.16;32.42;101344.78;5014807;27;98147;-71
2021/06/11 04:07:18;;;;;;;16.75;15.23;;;;;;;20.16;32.41;101342.06;5016194;27;102001;-71
2021/06/11 04:09:49;;;;;;;16.85;15.25;;;;;;;20.19;32.38;101338.44;5017078;27;97759;-71
2021/06/11 04:12:21;;;;;;;17.42;15.50;;;;;;;20.21;32.59;101336.63;5012649;27;97454;-71
2021/06/11 04:14:51;;;;;;;17.02;15.43;;;;;;;20.26;32.58;101340.19;4990989;27;97990;-71
2021/06/11 04:17:23;;;;;;;45.38;33.20;;;;;;;20.27;32.46;101344.66;5014812;27;98408;-71
2021/06/11 04:19:54;;;;;;;47.25;38.30;;;;;;;20.30;32.63;101333.84;5031752;27;98726;-71
2021/06/11 04:22:24;;;;;;;20.37;18.17;;;;;;;20.32;32.51;101345.53;5017042;27;97291;-71
2021/06/11 04:24:52;;;;;;;17.83;16.13;;;;;;;20.35;32.47;101335.59;5016403;27;97591;-71
2021/06/11 04:27:19;;;;;;;17.85;16.13;;;;;;;20.41;32.35;101340.91;4993084;28;98414;-72
2021/06/11 04:29:47;;;;;;;19.50;17.50;;;;;;;20.46;32.22;101333.66;5015924;27;97751;-71
2021/06/11 04:32:15;;;;;;;17.48;15.75;;;;;;;20.48;32.38;101337.25;5018415;27;97213;-71
2021/06/11 04:34:45;;;;;;;16.50;14.90;;;;;;;20.49;32.03;101332.72;5016394;27;97768;-70
2021/06/11 04:37:17;;;;;;;16.70;15.00;;;;;;;20.53;32.23;101337.22;5017162;27;98628;-70
2021/06/11 04:39:44;;;;;;;16.08;14.38;;;;;;;20.56;32.33;101342.56;4994619;28;99374;-71
2021/06/11 04:42:12;;;;;;;17.13;15.43;;;;;;;20.60;32.21;101338.94;5018811;27;98761;-70
2021/06/11 04:44:39;;;;;;;17.33;15.48;;;;;;;20.65;31.68;101337.06;5019861;27;98062;-70
2021/06/11 04:47:07;;;;;;;22.30;19.88;;;;;;;20.68;31.59;101334.34;5018509;27;97653;-71
2021/06/11 04:49:35;;;;;;;54.90;40.60;;;;;;;20.71;31.63;101335.19;5022233;27;99190;-70
2021/06/11 04:52:04;;;;;;;15.67;14.17;;;;;;;20.75;31.60;101333.34;5020403;27;98035;-70
2021/06/11 04:54:31;;;;;;;15.60;14.15;;;;;;;20.76;31.67;101333.31;5021054;27;97413;-70
2021/06/11 04:57:00;;;;;;;15.85;14.10;;;;;;;20.77;31.50;101337.84;5018937;27;98821;-70
2021/06/11 04:59:28;;;;;;;15.80;14.35;;;;;;;20.80;31.80;101335.09;5020757;27;98272;-70
2021/06/11 05:01:55;;;;;;;40.40;27.98;;;;;;;20.82;31.71;101326.94;5019859;27;98155;-70
2021/06/11 05:04:23;;;;;;;25.95;22.38;;;;;;;20.87;31.83;101325.97;5021204;27;97833;-70
2021/06/11 05:06:54;;;;;;;15.43;13.68;;;;;;;20.90;31.58;101325.94;5016659;27;100293;-70
2021/06/11 05:09:23;;;;;;;14.65;13.23;;;;;;;20.89;31.15;101328.66;5015746;27;97643;-70
2021/06/11 05:11:50;;;;;;;16.00;13.43;;;;;;;20.92;31.63;101312.41;5017679;27;97320;-70
2021/06/11 05:14:18;;;;;;;14.90;13.40;;;;;;;20.96;31.56;101323.16;5020933;27;97073;-70
2021/06/11 05:16:45;;;;;;;14.50;13.00;;;;;;;20.94;31.20;101337.63;5013867;27;99279;-70
2021/06/11 05:19:13;;;;;;;15.52;13.77;;;;;;;20.87;31.71;101334.09;5017749;27;100683;-71
2021/06/11 05:21:40;;;;;;;13.88;12.63;;;;;;;20.88;31.40;101324.19;5019645;27;97280;-70
2021/06/11 05:24:08;;;;;;;14.50;13.13;;;;;;;20.90;31.84;101325.06;5003185;28;98096;-70
2021/06/11 05:26:37;;;;;;;14.77;13.48;;;;;;;20.93;31.48;101323.19;5002362;28;98863;-70
2021/06/11 05:29:04;;;;;;;16.35;14.85;;;;;;;20.94;31.20;101324.97;5020007;27;98634;-69
2021/06/11 05:31:31;;;;;;;16.73;15.02;;;;;;;20.96;31.25;101323.16;5019225;27;97978;-70
2021/06/11 05:33:59;;;;;;;16.70;15.00;;;;;;;20.97;31.25;101326.75;5019951;27;97939;-70
2021/06/11 05:36:26;;;;;;;17.07;15.27;;;;;;;20.98;31.20;101318.63;5019090;27;98926;-69
2021/06/11 05:38:53;;;;;;;16.23;14.52;;;;;;;21.04;31.06;101327.56;5003193;28;99486;-70
2021/06/11 05:41:21;;;;;;;16.10;14.60;;;;;;;21.05;31.57;101327.53;5019381;27;97192;-72
2021/06/11 05:43:51;;;;;;;14.13;12.80;;;;;;;21.09;31.28;101321.16;5022081;27;97105;-70
2021/06/11 05:46:19;;;;;;;15.38;13.93;;;;;;;21.15;31.45;101317.53;5001393;28;99818;-70
2021/06/11 05:48:47;;;;;;;14.85;12.93;;;;;;;21.17;31.00;101332.84;5002268;28;100684;-70
2021/06/11 05:51:15;;;;;;;13.57;12.27;;;;;;;21.15;31.03;101328.34;4999738;28;97892;-70
2021/06/11 05:53:42;;;;;;;14.50;13.20;;;;;;;21.20;31.26;101324.66;5020082;27;97044;-70
2021/06/11 05:56:09;;;;;;;15.38;13.38;;;;;;;21.25;30.84;101333.59;5019697;27;99429;-70
2021/06/11 05:58:37;;;;;;;14.95;13.57;;;;;;;21.28;31.31;101332.69;5013499;27;98728;-70
2021/06/11 06:01:06;;;;;;;13.57;12.27;;;;;;;21.33;31.40;101337.13;5019564;27;97309;-70
2021/06/11 06:03:34;;;;;;;14.50;13.10;;;;;;;21.36;31.11;101330.78;5021380;27;97023;-70
2021/06/11 06:06:01;;;;;;;17.88;16.10;;;;;;;21.39;31.29;101336.13;5019945;27;97781;-70
2021/06/11 06:08:28;;;;;;;13.43;12.20;;;;;;;21.43;31.13;101330.66;5019530;27;99250;-70
2021/06/11 06:10:56;;;;;;;14.60;13.27;;;;;;;21.45;31.05;101336.06;5016953;27;97474;-70
2021/06/11 06:13:23;;;;;;;14.57;13.07;;;;;;;21.48;31.01;101326.06;5025886;27;97411;-73
2021/06/11 06:15:51;;;;;;;15.90;13.90;;;;;;;21.52;30.93;101321.50;5004694;28;99566;-71
2021/06/11 06:18:19;;;;;;;16.55;13.38;;;;;;;21.53;30.65;101320.56;5022493;27;97510;-70
2021/06/11 06:20:47;;;;;;;14.48;13.15;;;;;;;21.54;30.66;101325.06;5004266;28;98134;-70
2021/06/11 06:23:14;;;;;;;15.45;12.57;;;;;;;21.58;30.88;101319.56;5023568;27;97238;-70
2021/06/11 06:25:42;;;;;;;14.40;12.25;;;;;;;21.62;30.76;101320.41;5021568;27;98353;-69
2021/06/11 06:28:09;;;;;;;12.93;11.03;;;;;;;21.62;30.37;101318.59;5017988;27;100335;-70
2021/06/11 06:30:36;;;;;;;12.52;11.43;;;;;;;21.67;30.17;101323.97;5021448;27;98563;-70
2021/06/11 06:33:04;;;;;;;13.98;12.68;;;;;;;21.72;30.35;101322.09;5002522;28;98129;-69
2021/06/11 06:35:33;;;;;;;12.77;11.45;;;;;;;21.69;29.98;101316.72;5018726;27;97852;-69
2021/06/11 06:38:00;;;;;;;11.48;10.48;;;;;;;21.71;29.88;101309.47;5018210;27;99335;-69
2021/06/11 06:40:28;;;;;;;12.48;11.38;;;;;;;21.75;30.28;101314.81;5000625;28;97258;-72
2021/06/11 06:42:55;;;;;;;13.95;11.20;;;;;;;21.80;30.14;101315.63;5019338;27;96899;-70
2021/06/11 06:45:22;;;;;;;12.98;11.75;;;;;;;21.90;30.14;101314.56;5018760;27;97673;-69
2021/06/11 06:47:49;;;;;;;12.15;11.05;;;;;;;21.95;29.83;101314.47;5018770;27;97916;-70
2021/06/11 06:50:19;;;;;;;11.35;10.35;;;;;;;21.96;30.15;101316.28;5020499;27;97657;-71
2021/06/11 06:52:52;;;;;;;13.43;11.00;;;;;;;22.02;29.97;101316.16;5020614;27;97740;-71
2021/06/11 06:55:20;;;;;;;12.20;10.90;;;;;;;22.08;29.96;101320.56;5016069;27;97536;-71
2021/06/11 06:57:47;;;;;;;12.07;10.77;;;;;;;22.16;29.82;101314.09;5017214;27;98601;-71
2021/06/11 07:00:15;;;;;;;12.25;10.90;;;;;;;22.18;29.89;101319.50;5013483;27;98069;-71
2021/06/11 07:02:43;;;;;;;12.27;11.20;;;;;;;22.21;29.63;101320.34;5001924;28;97981;-71
2021/06/11 07:05:11;;;;;;;11.48;10.48;;;;;;;22.32;29.63;101318.34;5016952;27;99774;-70
2021/06/11 07:07:38;;;;;;;11.07;9.97;;;;;;;22.37;29.58;101312.81;5019375;27;97633;-71
2021/06/11 07:10:08;;;;;;;10.65;9.60;;;;;;;22.43;29.66;101310.91;5018522;27;97669;-71
2021/06/11 07:12:36;;;;;;;10.15;9.13;;;;;;;22.50;29.68;101311.66;5019380;27;98052;-70
2021/06/11 07:15:09;;;;;;;10.80;9.38;;;;;;;22.55;29.62;101313.38;4994515;28;97808;-70
2021/06/11 07:17:36;;;;;;;12.73;9.32;;;;;;;22.57;29.23;101311.53;5019221;27;99022;-70
2021/06/11 07:20:05;;;;;;;9.80;8.82;;;;;;;22.60;29.87;101302.44;5018633;27;98002;-70
2021/06/11 07:22:32;;;;;;;9.67;8.80;;;;;;;22.69;29.36;101304.97;5019905;27;97027;-70
2021/06/11 07:25:02;;;;;;;10.27;8.98;;;;;;;22.73;29.40;101298.50;5019590;27;97923;-70
2021/06/11 07:27:32;;;;;;;10.20;9.20;;;;;;;22.79;29.18;101306.53;5018800;27;99705;-71
2021/06/11 07:30:00;;;;;;;10.95;9.88;;;;;;;22.85;29.17;101314.59;5018509;27;96927;-71
2021/06/11 07:32:27;;;;;;;11.27;9.10;;;;;;;22.90;29.44;101301.81;5019111;27;97357;-71
2021/06/11 07:34:55;;;;;;;9.60;8.40;;;;;;;22.92;29.32;101310.81;5017544;27;100404;-71
2021/06/11 07:37:22;;;;;;;9.30;8.40;;;;;;;22.96;29.38;101317.97;5017128;27;98292;-70
2021/06/11 07:39:49;;;;;;;10.50;7.78;;;;;;;23.03;29.13;101314.19;5020290;27;98000;-70
2021/06/11 07:42:21;;;;;;;7.38;6.72;;;;;;;23.10;29.15;101313.13;5019345;27;97376;-69
2021/06/11 07:44:53;;;;;;;6.30;5.80;;;;;;;23.16;28.64;101318.44;5019303;27;97273;-70
2021/06/11 07:47:21;;;;;;;21.63;17.35;;;;;;;23.22;28.25;101310.13;5017444;27;97729;-70
2021/06/11 07:49:48;;;;;;;7.30;6.68;;;;;;;23.29;27.38;101306.38;5017923;27;97702;-70
2021/06/11 07:52:16;;;;;;;5.57;4.97;;;;;;;23.29;27.24;101317.22;5012233;27;97816;-71
2021/06/11 07:54:44;;;;;;;5.30;4.88;;;;;;;23.32;26.84;101313.53;5010941;27;98571;-70
2021/06/11 07:57:11;;;;;;;5.15;4.75;;;;;;;23.34;27.04;101307.16;5001989;27;98758;-70
2021/06/11 07:59:41;;;;;;;7.10;6.40;;;;;;;23.39;27.13;101318.81;5018121;27;98044;-70
2021/06/11 08:02:10;;;;;;;6.73;6.17;;;;;;;23.42;26.99;101313.31;5017303;27;97320;-70
2021/06/11 08:04:38;;;;;;;7.50;6.90;;;;;;;23.43;26.85;101314.22;5016074;27;97949;-71
2021/06/11 08:07:05;;;;;;;8.47;7.77;;;;;;;23.41;26.99;101314.25;5019384;27;98798;-70
2021/06/11 08:09:33;;;;;;;101.50;73.43;;;;;;;23.43;27.25;101312.41;5016673;27;98051;-70
2021/06/11 08:12:00;;;;;;;9.68;8.68;;;;;;;23.49;27.05;101316.78;5017437;27;97322;-70
2021/06/11 08:14:28;;;;;;;10.32;8.23;;;;;;;23.55;27.56;101317.53;5018527;27;97651;-70
2021/06/11 08:16:55;;;;;;;8.77;8.00;;;;;;;23.58;27.38;101309.31;5020444;27;98869;-69
2021/06/11 08:19:24;;;;;;;8.85;8.05;;;;;;;23.59;27.54;101316.53;5020253;27;96996;-70
2021/06/11 08:21:51;;;;;;;9.63;8.57;;;;;;;23.60;27.50;101317.44;5022473;27;96968;-70
2021/06/11 08:24:19;;;;;;;9.93;8.25;;;;;;;23.66;27.52;101320.00;5021081;27;99964;-69
2021/06/11 08:26:46;;;;;;;9.73;8.90;;;;;;;23.66;27.51;101320.00;5021500;27;97604;-70
2021/06/11 08:29:13;;;;;;;9.25;8.30;;;;;;;23.68;27.12;101316.31;5023129;27;97761;-70
2021/06/11 08:31:44;;;;;;;12.00;7.70;;;;;;;23.68;27.63;101319.00;5021967;27;97205;-70
2021/06/11 08:34:11;;;;;;;8.25;7.65;;;;;;;23.74;27.64;101316.16;5020743;27;98186;-70
2021/06/11 08:36:40;;;;;;;9.30;8.40;;;;;;;23.82;27.56;101310.53;5020481;27;97964;-69
2021/06/11 08:39:07;;;;;;;9.02;8.13;;;;;;;23.85;27.34;101313.16;5019351;27;97088;-69
2021/06/11 08:41:35;;;;;;;9.95;9.05;;;;;;;23.88;27.38;101308.53;5020830;27;99625;-70
2021/06/11 08:44:03;;;;;;;9.17;8.27;;;;;;;23.97;27.43;101317.44;5001880;27;99367;-70
2021/06/11 08:46:32;;;;;;;8.90;8.10;;;;;;;24.00;27.92;101317.34;5019079;27;97717;-71
2021/06/11 08:49:01;;;;;;;22.40;18.77;;;;;;;24.04;27.56;101314.53;4999962;27;98037;-71
2021/06/11 08:51:29;;;;;;;61.63;43.80;;;;;;;24.04;27.88;101319.97;5015950;27;97757;-71
2021/06/11 08:53:58;;;;;;;7.97;7.30;;;;;;;24.11;27.23;101317.97;5021502;27;99327;-71
2021/06/11 08:56:25;;;;;;;8.67;6.40;;;;;;;24.16;27.26;101319.63;5019584;27;98900;-71
2021/06/11 08:58:53;;;;;;;7.57;6.88;;;;;;;24.19;26.91;101324.97;5001586;27;97473;-70
2021/06/11 09:01:21;;;;;;;8.17;7.33;;;;;;;24.21;26.77;101323.09;5018574;27;98197;-71
2021/06/11 09:03:49;;;;;;;8.97;6.70;;;;;;;24.22;26.70;101313.13;5019695;27;97139;-71
2021/06/11 09:06:17;;;;;;;7.75;6.03;;;;;;;24.33;26.01;101316.47;5016269;27;98223;-71
2021/06/11 09:08:51;;;;;;;6.30;5.70;;;;;;;24.36;25.75;101317.25;5005685;27;97013;-72
2021/06/11 09:11:21;;;;;;;8.27;5.78;;;;;;;24.33;25.69;101330.06;5019031;27;97571;-71
2021/06/11 09:13:51;;;;;;;6.40;5.80;;;;;;;24.55;25.43;101317.69;5022240;27;100269;-70
2021/06/11 09:16:20;;;;;;;7.22;6.18;;;;;;;24.51;25.55;101315.97;5018805;27;99746;-71
2021/06/11 09:18:50;;;;;;;8.57;5.67;;;;;;;24.52;25.98;101318.66;5021882;27;98008;-71
2021/06/11 09:21:34;;;;;;;6.73;6.00;;;;;;;24.61;25.96;101325.66;5020481;27;96927;-71
2021/06/11 09:24:11;;;;;;;7.45;6.32;;;;;;;24.60;25.63;101330.22;5004299;27;98017;-71
2021/06/11 09:26:40;;;;;;;8.33;6.27;;;;;;;24.60;25.16;101332.94;5018696;27;97223;-71
2021/06/11 09:29:18;;;;;;;8.37;6.40;;;;;;;24.63;25.53;101321.06;5018169;27;98092;-71
2021/06/11 09:31:46;;;;;;;53.28;35.75;;;;;;;24.68;25.11;101330.00;5020231;27;98842;-71
2021/06/11 09:34:21;;;;;;;11.18;10.00;;;;;;;24.71;25.09;101327.19;5021456;27;97704;-70
2021/06/11 09:37:01;;;;;;;7.82;6.20;;;;;;;24.76;25.19;101327.94;5018931;27;99303;-71
2021/06/11 09:39:39;;;;;;;7.90;7.20;;;;;;;24.83;25.64;101334.13;5021607;27;96889;-71
2021/06/11 09:42:12;;;;;;;7.63;6.90;;;;;;;24.86;25.05;101329.47;5018931;27;97740;-71
2021/06/11 09:44:40;;;;;;;7.20;6.50;;;;;;;24.88;25.30;101327.59;5021434;27;97448;-71
2021/06/11 09:47:07;;;;;;;7.20;6.10;;;;;;;24.95;25.45;101331.06;5020092;27;99278;-72
2021/06/11 09:49:42;;;;;;;8.10;7.22;;;;;;;24.96;25.63;101331.00;5021683;27;97161;-71
2021/06/11 09:52:11;;;;;;;7.72;7.03;;;;;;;24.96;25.01;101330.09;5019798;27;97143;-70
2021/06/11 09:54:39;;;;;;;7.65;6.82;;;;;;;24.96;25.39;101330.09;5020581;27;99729;-71
2021/06/11 09:57:24;;;;;;;17.00;14.48;;;;;;;25.01;24.80;101323.56;5018526;27;98521;-71
2021/06/11 09:59:52;;;;;;;13.70;11.27;;;;;;;25.05;24.82;101325.28;5020439;27;96922;-71
2021/06/11 10:02:20;;;;;;;7.38;6.68;;;;;;;25.09;24.84;101321.53;5016210;27;97451;-70
2021/06/11 10:04:48;;;;;;;7.65;6.85;;;;;;;25.15;24.87;101321.34;5002528;28;98482;-71
2021/06/11 10:07:15;;;;;;;8.40;7.22;;;;;;;25.21;24.80;101323.00;5019812;27;98490;-71
2021/06/11 10:09:43;;;;;;;7.38;6.68;;;;;;;25.24;25.25;101321.06;5022348;27;97197;-71
2021/06/11 10:12:11;;;;;;;7.60;6.85;;;;;;;25.31;24.65;101319.94;5019551;27;97115;-71
2021/06/11 10:14:40;;;;;;;7.25;6.55;;;;;;;25.30;24.50;101329.03;5018659;27;98962;-71
2021/06/11 10:17:08;;;;;;;6.68;6.07;;;;;;;25.32;24.65;101318.09;5019434;27;99146;-70
2021/06/11 10:19:38;;;;;;;7.45;6.75;;;;;;;25.35;24.44;101318.91;5020577;27;96680;-72
2021/06/11 10:22:07;;;;;;;8.48;6.50;;;;;;;25.37;24.49;101322.47;5018790;27;97885;-72
2021/06/11 10:24:34;;;;;;;7.10;6.40;;;;;;;25.40;24.53;101321.47;5019130;27;99580;-73
2021/06/11 10:27:02;;;;;;;6.75;5.78;;;;;;;25.41;24.33;101318.69;5019472;27;99913;-71
2021/06/11 10:29:29;;;;;;;6.22;5.72;;;;;;;25.45;24.44;101308.63;5017284;27;97739;-71
2021/06/11 10:32:01;;;;;;;11.90;10.70;;;;;;;25.47;24.85;101320.34;4998982;28;96940;-72
2021/06/11 10:34:49;;;;;;;74.40;50.05;;;;;;;25.50;24.41;101315.69;4999863;28;99951;-72
2021/06/11 10:37:37;;;;;;;8.85;7.38;;;;;;;25.48;24.00;101314.88;5019669;27;98090;-72
2021/06/11 10:40:16;;;;;;;7.65;6.90;;;;;;;25.50;24.37;101307.50;5018848;27;97180;-72
2021/06/11 10:42:44;;;;;;;8.00;6.00;;;;;;;25.53;24.01;101312.00;5018710;27;97834;-72
2021/06/11 10:45:12;;;;;;;6.90;6.30;;;;;;;25.58;24.29;101305.44;5017520;27;100894;-72
2021/06/11 10:47:55;;;;;;;6.43;5.82;;;;;;;25.60;24.57;101303.56;5020662;27;98561;-72
2021/06/11 10:50:32;;;;;;;6.38;5.70;;;;;;;25.54;24.80;101302.88;5018252;27;97041;-72
2021/06/11 10:53:12;;;;;;;29.27;21.30;;;;;;;25.60;24.26;101291.75;5018753;27;97479;-72
2021/06/11 10:55:45;;;;;;;8.05;7.30;;;;;;;25.66;24.93;101299.75;5021220;27;99815;-72
2021/06/11 10:58:27;;;;;;;8.02;6.90;;;;;;;25.70;24.37;101305.03;5018956;27;98862;-72
2021/06/11 11:00:54;;;;;;;8.83;6.97;;;;;;;25.66;24.31;101308.81;5003692;28;97205;-73
2021/06/11 11:03:31;;;;;;;6.93;6.23;;;;;;;25.68;24.61;101306.94;4989359;28;97854;-72
2021/06/11 11:05:59;;;;;;;6.40;5.82;;;;;;;25.68;24.76;101296.03;5018596;27;98777;-72
2021/06/11 11:08:52;;;;;;;6.82;5.63;;;;;;;25.78;24.55;101294.75;5034043;27;98467;-72
2021/06/11 11:11:31;;;;;;;6.05;5.65;;;;;;;25.79;24.38;101299.25;5019404;27;97060;-72
2021/06/11 11:13:58;;;;;;;6.20;5.60;;;;;;;25.81;24.31;101293.78;5020963;27;97412;-72
2021/06/11 11:16:27;;;;;;;6.95;6.35;;;;;;;25.89;23.99;101296.25;5017795;27;100374;-73
2021/06/11 11:18:56;;;;;;;6.38;5.88;;;;;;;25.93;24.10;101287.91;5021417;27;97649;-72
2021/06/11 11:21:25;;;;;;;5.90;5.40;;;;;;;26.00;24.29;101288.59;5018684;27;97665;-73
2021/06/11 11:23:54;;;;;;;7.03;6.30;;;;;;;26.01;23.67;101287.66;5012956;28;97629;-73
2021/06/11 11:26:37;;;;;;;5.82;5.32;;;;;;;26.07;23.82;101290.19;5017790;27;98119;-74
2021/06/11 11:29:05;;;;;;;13.73;11.00;;;;;;;26.13;23.56;101281.75;5019802;27;97654;-73
2021/06/11 11:31:32;;;;;;;6.55;6.05;;;;;;;26.14;23.71;101284.44;5018851;27;97628;-72
2021/06/11 11:34:01;;;;;;;6.57;6.00;;;;;;;26.17;23.40;101276.16;5019250;27;97752;-71
2021/06/11 11:36:29;;;;;;;5.75;5.13;;;;;;;26.17;23.59;101267.06;5016846;27;100970;-72
2021/06/11 11:38:56;;;;;;;5.30;4.90;;;;;;;26.19;23.72;101276.09;5018800;27;98420;-73
2021/06/11 11:41:23;;;;;;;6.85;5.80;;;;;;;26.23;23.71;101272.31;5001552;27;97810;-72
2021/06/11 11:43:51;;;;;;;7.03;6.33;;;;;;;26.20;23.16;101267.84;5021190;27;97220;-73
2021/06/11 11:46:19;;;;;;;5.93;5.50;;;;;;;26.18;23.27;101271.59;5020063;27;98866;-74